Time;durP1;ratioP1;P1;durP2;ratioP2;P2;SDS_P1;SDS_P2;PMS_P1;PMS_P2;Temp;Humidity;BMP_temperature;BMP_pressure;BME280_temperature;BME280_humidity;BME280_pressure;Samples;Min_cycle;Max_cycle;Signal;HPM_P1;HPM_P2
2020/12/13 00:01:47;;;;;;;19.33;11.82;;;22.30;33.70;;;;;;6178340;28;84346;-59
2020/12/13 00:04:48;;;;;;;25.38;13.45;;;22.30;33.70;;;;;;6178179;27;83411;-61
2020/12/13 00:07:48;;;;;;;17.98;11.80;;;22.20;33.60;;;;;;6179747;28;83270;-61
2020/12/13 00:10:49;;;;;;;21.00;13.35;;;22.20;33.70;;;;;;6176943;27;83217;-60
2020/12/13 00:13:49;;;;;;;22.05;11.68;;;22.20;33.90;;;;;;6188205;28;83040;-60
2020/12/13 00:16:50;;;;;;;20.60;11.70;;;22.20;33.70;;;;;;6177358;27;83262;-60
2020/12/13 00:19:50;;;;;;;19.13;11.82;;;22.20;34.00;;;;;;6185286;28;83615;-60
2020/12/13 00:22:51;;;;;;;19.15;12.68;;;22.20;34.00;;;;;;6177195;28;83772;-60
2020/12/13 00:25:51;;;;;;;19.92;11.68;;;22.20;34.00;;;;;;6181598;28;85256;-59
2020/12/13 00:28:52;;;;;;;18.55;11.45;;;22.20;34.00;;;;;;6182726;27;82939;-60
2020/12/13 00:31:52;;;;;;;20.40;12.43;;;22.20;34.10;;;;;;6180078;28;83233;-57
2020/12/13 00:34:53;;;;;;;19.52;12.02;;;22.20;34.20;;;;;;6165686;27;83721;-58
2020/12/13 00:37:54;;;;;;;19.77;11.40;;;22.20;34.20;;;;;;6184211;28;83204;-58
2020/12/13 00:40:54;;;;;;;17.98;11.35;;;22.10;34.00;;;;;;6176738;27;83329;-58
2020/12/13 00:43:55;;;;;;;20.38;12.18;;;22.10;34.00;;;;;;6177364;28;84707;-59
2020/12/13 00:46:55;;;;;;;18.90;11.63;;;22.10;34.00;;;;;;6178222;28;83787;-59
2020/12/13 00:49:56;;;;;;;20.73;12.40;;;22.10;34.20;;;;;;6179127;28;83388;-60
2020/12/13 00:52:57;;;;;;;19.42;11.70;;;22.10;34.10;;;;;;6178762;27;84451;-60
2020/12/13 00:55:57;;;;;;;19.08;12.07;;;22.10;33.90;;;;;;6177538;28;85641;-61
2020/12/13 00:58:58;;;;;;;21.33;12.23;;;22.10;33.80;;;;;;6173485;27;84147;-60
2020/12/13 01:01:59;;;;;;;21.98;12.63;;;22.10;33.80;;;;;;6178222;28;83645;-60
2020/12/13 01:04:59;;;;;;;19.60;11.77;;;22.10;33.70;;;;;;6180156;27;84688;-61
2020/12/13 01:08:00;;;;;;;19.17;12.23;;;22.10;33.70;;;;;;6176781;28;83797;-59
2020/12/13 01:11:00;;;;;;;17.88;11.65;;;22.10;33.60;;;;;;6175520;28;83479;-59
2020/12/13 01:14:01;;;;;;;18.70;11.65;;;22.10;33.80;;;;;;6178281;28;83378;-60
2020/12/13 01:17:01;;;;;;;23.55;11.98;;;22.10;33.80;;;;;;6177432;27;83383;-60
2020/12/13 01:20:02;;;;;;;19.80;11.82;;;22.10;33.90;;;;;;6177370;28;83312;-60
2020/12/13 01:23:02;;;;;;;20.45;12.15;;;22.10;33.60;;;;;;6177574;27;83365;-59
2020/12/13 01:26:03;;;;;;;20.17;12.43;;;22.10;33.60;;;;;;6176480;28;83110;-58
2020/12/13 01:29:03;;;;;;;21.75;12.43;;;22.10;33.80;;;;;;6178491;28;83402;-62
2020/12/13 01:32:04;;;;;;;19.48;11.57;;;22.10;33.90;;;;;;6181512;27;84097;-61
2020/12/13 01:35:04;;;;;;;18.52;11.40;;;22.10;34.00;;;;;;6176882;28;82920;-60
2020/12/13 01:38:05;;;;;;;20.40;11.90;;;22.10;34.10;;;;;;6180490;27;83216;-58
2020/12/13 01:41:05;;;;;;;19.70;11.55;;;22.10;33.90;;;;;;6186668;28;84124;-58
2020/12/13 01:44:06;;;;;;;17.45;10.60;;;22.10;34.20;;;;;;6166782;27;85622;-58
2020/12/13 01:47:06;;;;;;;19.15;11.18;;;22.10;34.20;;;;;;6163003;28;83194;-59
2020/12/13 01:50:12;;;;;;;20.83;10.52;;;22.10;34.30;;;;;;6175760;27;83015;-58
2020/12/13 01:53:15;;;;;;;14.83;9.10;;;22.10;34.30;;;;;;6182935;28;83164;-57
2020/12/13 01:56:16;;;;;;;15.18;9.63;;;22.10;34.50;;;;;;6178165;28;84083;-58
2020/12/13 01:59:17;;;;;;;16.80;10.40;;;22.00;34.40;;;;;;6183938;27;80781;-59
2020/12/13 02:02:17;;;;;;;16.60;10.35;;;22.10;34.70;;;;;;6176307;28;83439;-58
2020/12/13 02:05:19;;;;;;;18.73;10.57;;;22.00;34.50;;;;;;6183158;27;84139;-55
2020/12/13 02:08:20;;;;;;;14.93;9.27;;;22.10;34.70;;;;;;6176846;28;83449;-58
2020/12/13 02:11:20;;;;;;;17.52;9.77;;;22.00;34.60;;;;;;6176851;27;85547;-58
2020/12/13 02:14:21;;;;;;;16.60;9.43;;;22.00;34.70;;;;;;6178056;28;81426;-56
2020/12/13 02:17:21;;;;;;;15.30;9.57;;;22.00;34.70;;;;;;6177011;28;81613;-56
2020/12/13 02:20:22;;;;;;;14.25;9.52;;;22.00;34.70;;;;;;6185222;27;81701;-56
2020/12/13 02:23:22;;;;;;;14.77;8.70;;;22.00;34.70;;;;;;6181268;28;80621;-54
2020/12/13 02:26:23;;;;;;;15.23;9.82;;;22.00;34.70;;;;;;6192895;27;80701;-57
2020/12/13 02:29:23;;;;;;;17.50;10.05;;;22.00;34.80;;;;;;6186579;28;80757;-53
2020/12/13 02:32:24;;;;;;;15.40;9.80;;;22.00;34.70;;;;;;6188066;27;83270;-55
2020/12/13 02:35:24;;;;;;;16.52;10.40;;;22.00;34.80;;;;;;6189487;28;83091;-56
2020/12/13 02:38:27;;;;;;;14.88;9.15;;;22.00;34.60;;;;;;6184303;28;83112;-56
2020/12/13 02:41:28;;;;;;;17.13;10.40;;;22.00;34.70;;;;;;6184641;28;84021;-55
2020/12/13 02:44:28;;;;;;;14.75;9.13;;;22.00;34.70;;;;;;6191091;28;83536;-57
2020/12/13 02:47:29;;;;;;;15.93;9.75;;;22.00;34.70;;;;;;6191217;28;82719;-57
2020/12/13 02:50:31;;;;;;;19.40;10.73;;;22.00;34.50;;;;;;6187969;28;81085;-55
2020/12/13 02:53:32;;;;;;;18.33;11.40;;;22.00;34.60;;;;;;6184608;27;83722;-56
2020/12/13 02:56:32;;;;;;;17.80;10.85;;;22.00;34.50;;;;;;6180470;28;83256;-57
2020/12/13 02:59:33;;;;;;;19.77;11.57;;;22.00;34.60;;;;;;6183871;27;83914;-56
2020/12/13 03:02:33;;;;;;;21.10;12.52;;;22.00;34.50;;;;;;6184751;28;83231;-56
2020/12/13 03:05:34;;;;;;;18.35;11.77;;;22.00;34.50;;;;;;6188014;27;83435;-57
2020/12/13 03:08:34;;;;;;;17.20;10.90;;;22.00;34.50;;;;;;6187631;28;83128;-58
2020/12/13 03:11:35;;;;;;;18.30;11.65;;;22.00;34.40;;;;;;6189724;27;84779;-53
2020/12/13 03:14:35;;;;;;;21.50;11.95;;;22.00;34.30;;;;;;6187470;28;83085;-55
2020/12/13 03:17:36;;;;;;;17.58;11.18;;;22.00;34.40;;;;;;6177743;28;84216;-56
2020/12/13 03:20:36;;;;;;;21.45;13.32;;;22.00;34.40;;;;;;6182562;28;83395;-57
2020/12/13 03:23:37;;;;;;;20.02;11.65;;;22.00;34.40;;;;;;6182081;27;83895;-58
2020/12/13 03:26:37;;;;;;;20.48;12.15;;;22.00;34.30;;;;;;6182931;28;82762;-57
2020/12/13 03:29:38;;;;;;;19.45;11.38;;;22.00;34.40;;;;;;6183645;27;83673;-57
2020/12/13 03:32:38;;;;;;;19.13;11.98;;;21.90;34.50;;;;;;6184517;28;86433;-56
2020/12/13 03:35:39;;;;;;;18.40;12.30;;;21.90;34.50;;;;;;6182004;27;83764;-57
2020/12/13 03:38:39;;;;;;;23.17;12.32;;;22.00;34.40;;;;;;6181820;28;83426;-56
2020/12/13 03:41:40;;;;;;;20.05;12.13;;;21.90;34.40;;;;;;6178476;28;84132;-56
2020/12/13 03:44:40;;;;;;;20.58;12.25;;;21.90;34.40;;;;;;6178191;27;84041;-57
2020/12/13 03:47:41;;;;;;;20.80;13.02;;;21.90;34.40;;;;;;6171248;28;85694;-56
2020/12/13 03:50:41;;;;;;;20.73;13.10;;;21.90;34.50;;;;;;6187336;27;83933;-57
2020/12/13 03:53:42;;;;;;;23.17;12.73;;;21.90;34.40;;;;;;6170828;28;84017;-56
2020/12/13 03:56:42;;;;;;;20.88;13.15;;;21.90;34.40;;;;;;6177538;27;83441;-58
2020/12/13 03:59:43;;;;;;;23.90;13.35;;;21.90;34.40;;;;;;6176505;28;83769;-57
2020/12/13 04:02:43;;;;;;;22.27;13.02;;;21.90;34.40;;;;;;6183989;27;83123;-57
2020/12/13 04:05:44;;;;;;;20.70;12.77;;;21.90;34.40;;;;;;6178113;28;83080;-58
2020/12/13 04:08:44;;;;;;;19.70;12.20;;;21.90;34.40;;;;;;6169333;27;83710;-57
2020/12/13 04:11:45;;;;;;;19.48;12.20;;;21.90;34.40;;;;;;6178005;28;83448;-60
2020/12/13 04:14:45;;;;;;;17.40;11.70;;;21.90;34.30;;;;;;6178172;28;83240;-57
2020/12/13 04:17:46;;;;;;;21.92;12.43;;;21.90;34.30;;;;;;6174163;28;84089;-54
2020/12/13 04:20:46;;;;;;;22.55;13.50;;;21.80;34.40;;;;;;6180141;27;84465;-59
2020/12/13 04:23:47;;;;;;;21.30;12.07;;;21.80;34.30;;;;;;6180335;28;84093;-58
2020/12/13 04:26:47;;;;;;;21.30;12.15;;;21.90;34.20;;;;;;6177560;28;83428;-58
2020/12/13 04:29:47;;;;;;;20.05;11.98;;;21.90;34.70;;;;;;6177692;28;83365;-59
2020/12/13 04:32:48;;;;;;;19.52;12.00;;;21.90;35.20;;;;;;6176099;27;83683;-58
2020/12/13 04:35:48;;;;;;;22.02;11.95;;;21.90;35.20;;;;;;6180883;28;84777;-57
2020/12/13 04:38:49;;;;;;;20.98;12.57;;;21.90;35.30;;;;;;6182632;27;83879;-56
2020/12/13 04:41:49;;;;;;;19.13;11.60;;;21.90;35.40;;;;;;6173948;28;83065;-56
2020/12/13 04:44:50;;;;;;;17.38;10.95;;;21.90;35.70;;;;;;6177690;27;86089;-56
2020/12/13 04:47:50;;;;;;;20.70;12.27;;;21.90;35.70;;;;;;6179904;28;83632;-58
2020/12/13 04:50:51;;;;;;;19.25;11.63;;;21.90;36.30;;;;;;6178324;28;86225;-58
2020/12/13 04:53:51;;;;;;;20.00;11.93;;;22.00;35.40;;;;;;6177016;28;83713;-58
2020/12/13 04:56:52;;;;;;;21.35;12.73;;;22.00;34.90;;;;;;6178150;28;84112;-58
2020/12/13 04:59:52;;;;;;;20.30;12.82;;;22.00;34.90;;;;;;6179111;28;83684;-55
2020/12/13 05:02:53;;;;;;;24.73;12.70;;;22.10;35.00;;;;;;6175188;27;84532;-57
2020/12/13 05:06:01;;;;;;;22.73;13.32;;;22.10;36.10;;;;;;6177296;28;84055;-57
2020/12/13 05:09:01;;;;;;;20.60;12.05;;;22.10;35.30;;;;;;6175618;27;83551;-57
2020/12/13 05:12:02;;;;;;;19.45;11.32;;;22.20;35.40;;;;;;6179675;28;83712;-57
2020/12/13 05:15:02;;;;;;;23.27;12.52;;;22.20;34.60;;;;;;6175691;28;83393;-58
2020/12/13 05:18:03;;;;;;;18.52;11.00;;;22.20;34.30;;;;;;6176459;28;83656;-59
2020/12/13 05:21:03;;;;;;;20.02;12.05;;;22.30;34.40;;;;;;6179325;27;83164;-57
2020/12/13 05:24:04;;;;;;;20.25;11.77;;;22.30;34.30;;;;;;6182010;28;83659;-57
2020/12/13 05:27:04;;;;;;;18.25;11.85;;;22.30;34.20;;;;;;6175225;27;83283;-56
2020/12/13 05:30:05;;;;;;;19.63;11.85;;;22.30;34.20;;;;;;6178271;28;83275;-57
2020/12/13 05:33:06;;;;;;;21.00;12.32;;;22.30;34.50;;;;;;6175115;27;83320;-56
2020/12/13 05:36:06;;;;;;;20.75;12.57;;;22.40;34.10;;;;;;6178906;28;83439;-58
2020/12/13 05:39:07;;;;;;;21.88;12.60;;;22.40;34.00;;;;;;6176753;28;83621;-59
2020/12/13 05:42:07;;;;;;;19.70;11.30;;;22.40;33.90;;;;;;6174111;28;83568;-58
2020/12/13 05:54:23;;;;;;;17.65;10.55;;;22.40;34.90;;;;;;6176129;28;84291;-56
2020/12/13 05:57:23;;;;;;;19.42;12.15;;;22.50;34.10;;;;;;6179310;27;83891;-47
2020/12/13 06:00:24;;;;;;;20.15;11.68;;;22.50;33.90;;;;;;6163450;28;84314;-47
2020/12/13 06:03:24;;;;;;;17.35;9.95;;;22.50;34.80;;;;;;6163803;28;83073;-47
2020/12/13 06:06:25;;;;;;;15.75;8.32;;;22.50;35.80;;;;;;6176579;27;83612;-48
2020/12/13 06:09:25;;;;;;;13.68;8.40;;;22.50;36.60;;;;;;6177492;28;80612;-50
2020/12/13 06:12:26;;;;;;;10.27;6.50;;;22.50;37.30;;;;;;6176876;27;81057;-47
2020/12/13 06:15:27;;;;;;;10.23;5.85;;;22.50;38.90;;;;;;6170915;28;80734;-46
2020/12/13 06:18:27;;;;;;;10.13;6.07;;;22.50;39.00;;;;;;6174478;27;80904;-45
2020/12/13 06:21:28;;;;;;;9.93;5.78;;;22.50;39.80;;;;;;6177393;28;80858;-46
2020/12/13 06:24:28;;;;;;;9.50;5.70;;;22.50;39.50;;;;;;6175962;27;80268;-45
2020/12/13 06:27:29;;;;;;;8.55;5.15;;;22.50;40.50;;;;;;6177006;28;80739;-46
2020/12/13 06:30:29;;;;;;;12.45;5.97;;;22.50;40.60;;;;;;6177027;28;80442;-45
2020/12/13 06:33:30;;;;;;;13.05;6.88;;;22.50;40.50;;;;;;6175734;27;80834;-45
2020/12/13 06:36:30;;;;;;;12.52;6.35;;;22.50;41.40;;;;;;6175530;28;81165;-46
2020/12/13 06:39:31;;;;;;;13.77;6.15;;;22.50;40.60;;;;;;6160404;28;84181;-46
2020/12/13 06:42:31;;;;;;;12.35;6.60;;;22.50;41.80;;;;;;6174132;28;80525;-47
2020/12/13 06:45:32;;;;;;;9.40;5.60;;;22.50;41.80;;;;;;6174694;27;83371;-49
2020/12/13 06:48:32;;;;;;;12.50;5.65;;;22.50;42.30;;;;;;6174947;28;80417;-48
2020/12/13 06:51:34;;;;;;;11.63;4.97;;;22.50;42.90;;;;;;6176769;27;81138;-46
2020/12/13 06:54:35;;;;;;;11.02;6.10;;;22.50;43.10;;;;;;6176137;28;80365;-46
2020/12/13 06:57:36;;;;;;;12.63;5.60;;;22.50;42.60;;;;;;6169681;28;84258;-45
2020/12/13 07:00:36;;;;;;;8.88;5.80;;;22.50;42.30;;;;;;6176670;28;81106;-45
2020/12/13 07:03:37;;;;;;;9.15;5.20;;;22.50;42.90;;;;;;6170508;28;80952;-45
2020/12/13 07:06:37;;;;;;;35.60;6.50;;;22.50;43.20;;;;;;6174479;27;84063;-45
2020/12/13 07:09:38;;;;;;;12.48;6.70;;;22.50;43.00;;;;;;6176913;28;80741;-45
2020/12/13 07:12:38;;;;;;;22.70;10.65;;;22.50;43.80;;;;;;6178623;27;80832;-46
2020/12/13 07:15:41;;;;;;;29.33;11.30;;;22.40;44.30;;;;;;6177258;28;83081;-46
2020/12/13 07:18:41;;;;;;;18.10;9.50;;;22.40;44.80;;;;;;6178291;27;83157;-45
2020/12/13 07:21:42;;;;;;;20.00;9.50;;;22.40;44.70;;;;;;6168405;28;83425;-45
2020/12/13 07:24:42;;;;;;;17.88;10.35;;;22.50;44.20;;;;;;6179701;27;80717;-46
2020/12/13 07:27:43;;;;;;;19.02;8.75;;;22.40;45.60;;;;;;6172295;28;83577;-46
2020/12/13 07:30:43;;;;;;;16.08;8.70;;;22.40;45.90;;;;;;6179724;27;83485;-44
2020/12/13 07:33:44;;;;;;;14.43;8.23;;;22.40;46.40;;;;;;6174613;28;82954;-45
2020/12/13 07:36:44;;;;;;;12.43;7.05;;;22.40;46.60;;;;;;6178545;27;83111;-45
2020/12/13 07:39:45;;;;;;;15.65;7.07;;;22.40;45.80;;;;;;6175327;28;80728;-45
2020/12/13 07:42:45;;;;;;;16.42;7.43;;;22.30;46.60;;;;;;6180357;28;81969;-45
2020/12/13 07:45:47;;;;;;;13.63;7.70;;;22.30;46.50;;;;;;6179724;27;80706;-45
2020/12/13 07:48:48;;;;;;;12.63;7.32;;;22.40;46.50;;;;;;6179667;28;80847;-45
2020/12/13 07:51:48;;;;;;;11.13;6.47;;;22.30;46.20;;;;;;6179677;28;84150;-47
2020/12/13 07:54:49;;;;;;;12.57;7.20;;;22.40;45.80;;;;;;6164430;27;82501;-45
2020/12/13 07:57:50;;;;;;;10.93;6.05;;;22.40;45.60;;;;;;6179986;28;81130;-46
2020/12/13 08:00:50;;;;;;;12.75;6.70;;;22.40;45.60;;;;;;6176354;28;81139;-45
2020/12/13 08:03:51;;;;;;;12.23;6.25;;;22.40;45.40;;;;;;6179338;28;80888;-49
2020/12/13 08:06:51;;;;;;;11.23;6.07;;;22.40;45.00;;;;;;6169233;27;81037;-49
2020/12/13 08:09:52;;;;;;;9.75;5.50;;;22.50;45.50;;;;;;6178225;28;80641;-49
2020/12/13 08:12:52;;;;;;;10.40;6.25;;;22.50;45.40;;;;;;6180180;27;80395;-48
2020/12/13 08:15:53;;;;;;;13.63;6.53;;;22.40;45.70;;;;;;6178912;28;80656;-46
2020/12/13 08:18:53;;;;;;;17.75;7.65;;;22.40;45.90;;;;;;6172972;27;80830;-45
2020/12/13 08:21:54;;;;;;;32.30;10.43;;;22.50;46.20;;;;;;6173563;28;80646;-51
2020/12/13 08:24:54;;;;;;;108.35;29.92;;;22.50;47.00;;;;;;6169672;27;85339;-53
2020/12/13 08:27:55;;;;;;;577.45;192.05;;;22.50;47.80;;;;;;6166637;28;84095;-51
2020/12/13 08:30:55;;;;;;;629.67;220.40;;;22.60;47.70;;;;;;6172788;27;85825;-52
2020/12/13 08:33:56;;;;;;;683.38;257.02;;;22.60;48.90;;;;;;6169715;28;86220;-55
2020/12/13 08:36:56;;;;;;;836.72;322.63;;;22.60;48.20;;;;;;6172153;27;85855;-49
2020/12/13 08:39:57;;;;;;;725.28;286.25;;;22.60;47.60;;;;;;6172547;28;85480;-49
2020/12/13 08:42:57;;;;;;;670.45;254.95;;;22.60;47.40;;;;;;6174116;27;86000;-49
2020/12/13 08:45:58;;;;;;;609.78;224.50;;;22.60;46.00;;;;;;6166519;28;86102;-52
2020/12/13 08:48:59;;;;;;;529.55;186.63;;;22.60;45.60;;;;;;6174297;27;86222;-51
2020/12/13 08:51:59;;;;;;;476.40;162.85;;;22.50;45.80;;;;;;6171472;28;86972;-52
2020/12/13 08:55:02;;;;;;;406.90;136.43;;;22.60;45.90;;;;;;6171990;27;86164;-49
2020/12/13 08:58:02;;;;;;;376.90;131.13;;;22.60;46.10;;;;;;6166909;28;85913;-50
2020/12/13 09:01:03;;;;;;;345.38;119.88;;;22.60;45.90;;;;;;6155277;27;90033;-48
2020/12/13 09:04:03;;;;;;;304.13;105.53;;;22.70;46.60;;;;;;6150611;28;91187;-51
2020/12/13 09:07:04;;;;;;;290.88;104.50;;;22.70;46.30;;;;;;6159605;28;86392;-48
2020/12/13 09:10:04;;;;;;;260.63;92.47;;;22.70;45.30;;;;;;6156029;28;85840;-52
2020/12/13 09:13:05;;;;;;;238.60;84.32;;;22.70;45.20;;;;;;6173644;28;86460;-46
2020/12/13 09:16:05;;;;;;;242.43;83.68;;;22.70;44.50;;;;;;6162395;27;84571;-51
2020/12/13 09:19:06;;;;;;;223.77;75.28;;;22.80;44.40;;;;;;6174085;28;83402;-47
2020/12/13 09:22:07;;;;;;;199.13;69.68;;;22.70;43.90;;;;;;6169620;27;83622;-48
2020/12/13 09:25:07;;;;;;;198.57;71.05;;;22.70;43.20;;;;;;6174058;28;85494;-51
2020/12/13 09:28:08;;;;;;;174.43;62.78;;;22.70;42.90;;;;;;6174290;28;83107;-47
2020/12/13 09:31:08;;;;;;;153.93;60.08;;;22.70;42.90;;;;;;6172361;27;83165;-48
2020/12/13 09:34:09;;;;;;;152.35;57.45;;;22.70;42.40;;;;;;6172814;28;83209;-48
2020/12/13 09:37:09;;;;;;;149.43;56.60;;;22.70;42.30;;;;;;6173142;27;83059;-47
2020/12/13 09:40:10;;;;;;;136.88;50.97;;;22.70;42.30;;;;;;6170828;28;84793;-49
2020/12/13 09:43:10;;;;;;;125.00;49.97;;;22.70;41.90;;;;;;6173809;27;83388;-49
2020/12/13 09:46:11;;;;;;;126.20;47.65;;;22.70;41.80;;;;;;6174144;28;84688;-49
2020/12/13 09:49:11;;;;;;;106.80;42.20;;;22.70;41.70;;;;;;6172967;27;89386;-48
2020/12/13 09:52:12;;;;;;;116.55;44.28;;;22.70;41.80;;;;;;6173308;28;83531;-49
2020/12/13 09:55:12;;;;;;;109.18;42.55;;;22.80;41.50;;;;;;6166528;28;83022;-50
2020/12/13 09:58:13;;;;;;;103.22;40.35;;;22.80;41.40;;;;;;6168348;27;83721;-48
2020/12/13 10:01:13;;;;;;;108.55;39.30;;;22.70;41.20;;;;;;6164680;28;83039;-48
2020/12/13 10:04:15;;;;;;;98.60;36.60;;;22.80;41.20;;;;;;6171133;27;83794;-47
2020/12/13 10:10:16;;;;;;;84.78;35.20;;;22.70;41.20;;;;;;6174738;28;83598;-49
2020/12/13 10:13:16;;;;;;;75.90;31.52;;;22.80;41.10;;;;;;6167168;28;84013;-49
2020/12/13 10:16:17;;;;;;;72.53;30.00;;;22.70;40.80;;;;;;6173451;28;83446;-46
2020/12/13 10:19:18;;;;;;;62.60;29.35;;;22.70;40.50;;;;;;6170290;28;83719;-48
2020/12/13 10:22:18;;;;;;;70.43;29.60;;;22.70;40.40;;;;;;6170781;28;83149;-48
2020/12/13 10:25:19;;;;;;;69.65;27.63;;;22.70;40.50;;;;;;6174753;27;83090;-50
2020/12/13 10:28:20;;;;;;;65.18;27.17;;;22.70;40.30;;;;;;6173238;28;83822;-48
2020/12/13 10:31:20;;;;;;;57.28;25.88;;;22.70;40.10;;;;;;6171078;27;83791;-48
2020/12/13 10:34:21;;;;;;;61.08;27.05;;;22.70;39.90;;;;;;6171165;28;84881;-50
2020/12/13 10:37:21;;;;;;;66.13;24.98;;;22.70;39.60;;;;;;6174054;28;83989;-47
2020/12/13 10:40:22;;;;;;;57.92;26.08;;;22.70;39.60;;;;;;6169929;28;84006;-49
2020/12/13 10:43:23;;;;;;;50.63;23.13;;;22.60;40.00;;;;;;6174058;28;83426;-48
2020/12/13 10:46:24;;;;;;;53.67;23.30;;;22.60;39.80;;;;;;6176230;28;83316;-48
2020/12/13 10:49:24;;;;;;;49.00;21.67;;;22.60;39.60;;;;;;6166605;28;83430;-47
2020/12/13 10:52:25;;;;;;;43.20;21.60;;;22.70;39.70;;;;;;6175587;27;83338;-49
2020/12/13 10:55:26;;;;;;;46.13;21.48;;;22.70;39.40;;;;;;6171208;28;83568;-49
2020/12/13 10:58:26;;;;;;;41.03;20.80;;;22.70;39.10;;;;;;6176128;27;86116;-51
2020/12/13 11:01:27;;;;;;;48.28;21.45;;;22.70;39.00;;;;;;6178178;28;85386;-47
2020/12/13 11:04:28;;;;;;;43.13;20.30;;;22.70;39.10;;;;;;6172962;28;83359;-50
2020/12/13 11:07:29;;;;;;;45.80;20.52;;;22.70;39.30;;;;;;6163477;28;83448;-48
2020/12/13 11:10:30;;;;;;;35.70;19.05;;;22.70;38.90;;;;;;6176787;27;83494;-50
2020/12/13 11:13:30;;;;;;;39.60;18.23;;;22.70;39.20;;;;;;6176094;28;84539;-49
2020/12/13 11:16:31;;;;;;;38.33;18.70;;;22.70;39.20;;;;;;6173949;27;86012;-47
2020/12/13 11:19:31;;;;;;;43.50;18.40;;;22.80;39.00;;;;;;6174244;28;84144;-47
2020/12/13 11:22:32;;;;;;;33.10;17.25;;;22.90;39.10;;;;;;6176973;28;83638;-48
2020/12/13 11:25:32;;;;;;;34.65;17.73;;;23.00;38.50;;;;;;6177319;27;83204;-50
2020/12/13 11:28:33;;;;;;;32.97;15.77;;;23.00;38.30;;;;;;6175352;28;83171;-47
2020/12/13 11:31:34;;;;;;;35.97;16.48;;;23.10;38.50;;;;;;6176516;28;83813;-48
2020/12/13 11:34:35;;;;;;;31.05;17.90;;;23.10;38.20;;;;;;6171841;27;83322;-46
2020/12/13 11:37:35;;;;;;;29.27;17.33;;;23.10;38.10;;;;;;6176555;28;84111;-48
2020/12/13 11:40:36;;;;;;;30.55;16.50;;;23.10;37.80;;;;;;6159247;28;89554;-50
2020/12/13 11:43:36;;;;;;;34.92;17.42;;;23.10;38.30;;;;;;6173520;28;83517;-50
2020/12/13 11:46:37;;;;;;;27.80;15.70;;;23.10;37.60;;;;;;6175474;28;83247;-47
2020/12/13 11:49:37;;;;;;;26.92;15.88;;;23.20;37.50;;;;;;6165710;27;86939;-49
2020/12/13 11:52:38;;;;;;;26.77;15.68;;;23.10;37.10;;;;;;6175415;28;83519;-50
2020/12/13 11:55:39;;;;;;;25.48;15.23;;;23.10;36.70;;;;;;6175094;27;83202;-48
2020/12/13 11:58:39;;;;;;;27.45;15.70;;;23.10;36.80;;;;;;6175995;28;83711;-49
2020/12/13 12:01:40;;;;;;;26.70;15.32;;;23.10;36.60;;;;;;6170695;28;82901;-46
2020/12/13 12:04:40;;;;;;;25.95;15.02;;;23.10;36.60;;;;;;6175347;27;85041;-54
2020/12/13 12:07:41;;;;;;;26.10;14.25;;;23.10;36.20;;;;;;6175691;28;83284;-49
2020/12/13 12:10:41;;;;;;;24.10;15.07;;;23.10;36.30;;;;;;6175650;27;83186;-50
2020/12/13 12:13:42;;;;;;;31.75;16.20;;;23.00;36.50;;;;;;6173713;28;85083;-49
2020/12/13 12:16:42;;;;;;;24.05;14.52;;;23.00;36.30;;;;;;6173415;27;83070;-51
2020/12/13 12:19:43;;;;;;;25.85;14.88;;;23.00;35.80;;;;;;6167565;28;83403;-50
2020/12/13 12:22:47;;;;;;;24.92;15.07;;;23.10;35.80;;;;;;6176178;27;83177;-52
2020/12/13 12:25:47;;;;;;;25.10;15.18;;;23.10;35.50;;;;;;6175706;28;83320;-52
2020/12/13 12:28:48;;;;;;;24.02;14.85;;;23.20;35.50;;;;;;6166670;27;83236;-52
2020/12/13 12:31:49;;;;;;;22.65;14.25;;;23.30;35.70;;;;;;6167340;28;83976;-53
2020/12/13 12:34:49;;;;;;;21.90;13.13;;;23.40;35.70;;;;;;6163113;27;83300;-53
2020/12/13 12:37:50;;;;;;;25.80;15.43;;;23.40;35.60;;;;;;6162950;28;84640;-55
2020/12/13 12:40:50;;;;;;;23.30;13.80;;;23.40;35.50;;;;;;6169529;28;83598;-53
2020/12/13 12:43:51;;;;;;;22.02;13.23;;;23.40;35.20;;;;;;6159820;28;83243;-51
2020/12/13 12:46:51;;;;;;;22.05;13.15;;;23.30;34.90;;;;;;6164105;28;83599;-53
2020/12/13 12:49:52;;;;;;;25.23;13.90;;;23.30;34.80;;;;;;6154343;27;85127;-48
2020/12/13 12:52:53;;;;;;;19.05;11.82;;;23.20;34.90;;;;;;6173921;28;83520;-51
2020/12/13 12:55:54;;;;;;;21.70;12.82;;;23.20;34.40;;;;;;6175677;27;83214;-54
2020/12/13 13:01:58;;;;;;;20.27;12.77;;;23.20;34.50;;;;;;6175550;27;83064;-50
2020/12/13 13:08:43;;;;;;;18.83;12.15;;;23.10;35.00;;;;;;6145053;28;83705;-51
2020/12/13 13:11:42;;;;;;;20.98;13.15;;;23.10;35.20;;;;;;6176389;27;84179;-55
2020/12/13 13:14:43;;;;;;;21.42;12.98;;;23.10;35.10;;;;;;6158493;28;83239;-50
2020/12/13 13:17:49;;;;;;;21.83;12.95;;;23.10;35.10;;;;;;6169460;28;84317;-51
2020/12/13 13:20:50;;;;;;;19.25;11.77;;;23.10;34.90;;;;;;6167257;28;82937;-53
2020/12/13 13:23:50;;;;;;;19.15;11.80;;;23.00;34.70;;;;;;6163525;27;83448;-52
2020/12/13 13:26:51;;;;;;;20.40;12.25;;;23.00;34.80;;;;;;6163378;28;84002;-51
2020/12/13 13:29:52;;;;;;;20.73;12.48;;;23.00;35.00;;;;;;6158777;28;92605;-51
2020/12/13 13:32:52;;;;;;;18.83;12.30;;;23.00;34.60;;;;;;6143573;28;87660;-53
2020/12/13 13:35:54;;;;;;;22.08;12.45;;;22.90;34.50;;;;;;6162059;28;85669;-50
2020/12/13 13:38:55;;;;;;;18.92;11.65;;;22.90;34.40;;;;;;6172900;28;83532;-54
2020/12/13 13:41:55;;;;;;;20.05;11.00;;;22.90;34.70;;;;;;6172160;28;83933;-54
2020/12/13 13:45:27;;;;;;;18.70;11.05;;;22.90;34.80;;;;;;6173256;28;83528;-53
2020/12/13 13:51:26;;;;;;;18.85;11.48;;;22.90;34.60;;;;;;6172913;28;83688;-51
2020/12/13 13:54:28;;;;;;;19.00;11.40;;;22.80;34.50;;;;;;6172480;27;84766;-50
2020/12/13 13:57:31;;;;;;;16.65;10.85;;;22.80;34.50;;;;;;6170753;28;83784;-51
2020/12/13 14:00:32;;;;;;;19.00;11.55;;;22.80;34.40;;;;;;6172736;27;84256;-50
2020/12/13 14:03:33;;;;;;;16.60;11.52;;;22.80;34.30;;;;;;6172883;28;84003;-53
2020/12/13 14:09:43;;;;;;;21.88;11.18;;;22.90;34.00;;;;;;6159622;28;84067;-52
2020/12/13 14:12:44;;;;;;;19.13;10.85;;;23.00;34.00;;;;;;6169842;27;84308;-50
2020/12/13 14:15:45;;;;;;;17.58;10.85;;;23.00;33.80;;;;;;6161012;28;83967;-50
2020/12/13 14:18:46;;;;;;;19.27;11.18;;;23.00;33.80;;;;;;6170812;28;84702;-50
2020/12/13 14:21:46;;;;;;;19.98;11.07;;;23.00;33.70;;;;;;6173601;28;84108;-52
2020/12/13 14:24:47;;;;;;;18.25;11.27;;;23.10;34.00;;;;;;6172294;28;84437;-52
2020/12/13 14:27:47;;;;;;;21.52;12.52;;;23.10;34.40;;;;;;6172010;28;83212;-51
2020/12/13 14:30:48;;;;;;;21.58;12.18;;;23.10;35.20;;;;;;6170989;28;84279;-49
2020/12/13 14:33:48;;;;;;;21.75;10.82;;;23.10;35.40;;;;;;6173018;28;83443;-50
2020/12/13 14:36:49;;;;;;;18.35;11.43;;;23.20;36.10;;;;;;6170020;28;86051;-49
2020/12/13 14:39:49;;;;;;;19.10;11.10;;;23.20;36.00;;;;;;6171128;28;83372;-50
2020/12/13 14:42:50;;;;;;;17.52;10.27;;;23.20;35.70;;;;;;6172760;27;83607;-53
2020/12/13 14:45:50;;;;;;;17.33;11.15;;;23.20;35.60;;;;;;6172109;28;83156;-50
2020/12/13 14:48:51;;;;;;;19.50;12.27;;;23.20;36.30;;;;;;6172458;28;89011;-47
2020/12/13 14:51:52;;;;;;;20.65;11.48;;;23.20;36.50;;;;;;6167574;27;83514;-51
2020/12/13 14:54:52;;;;;;;21.98;11.65;;;23.30;36.70;;;;;;6172417;28;83790;-51
2020/12/13 14:57:53;;;;;;;19.98;10.82;;;23.30;36.70;;;;;;6172078;28;84718;-51
2020/12/13 15:00:53;;;;;;;18.50;10.43;;;23.30;36.70;;;;;;6168006;28;83059;-52
2020/12/13 15:03:54;;;;;;;17.50;11.07;;;23.20;36.70;;;;;;6174219;27;83932;-51
2020/12/13 15:06:54;;;;;;;17.63;10.35;;;23.30;36.80;;;;;;6172033;28;84765;-51
2020/12/13 15:09:55;;;;;;;16.08;10.93;;;23.30;37.10;;;;;;6173372;28;83452;-51
2020/12/13 15:12:55;;;;;;;16.65;11.05;;;23.30;36.90;;;;;;6163509;28;84332;-53
2020/12/13 15:18:56;;;;;;;17.75;10.00;;;23.20;36.20;;;;;;6170980;28;83764;-46
2020/12/13 15:22:01;;;;;;;16.25;10.07;;;23.20;36.50;;;;;;6171250;28;83418;-49
2020/12/13 15:25:02;;;;;;;17.45;10.55;;;23.20;36.40;;;;;;6172847;28;83545;-49
2020/12/13 15:28:03;;;;;;;16.38;10.50;;;23.20;36.40;;;;;;6170119;28;84197;-52
2020/12/13 15:31:04;;;;;;;16.42;10.55;;;23.20;36.30;;;;;;6173541;28;83366;-52
2020/12/13 15:34:04;;;;;;;18.77;10.88;;;23.20;36.20;;;;;;6176057;28;84282;-48
2020/12/13 15:37:05;;;;;;;13.77;9.15;;;23.10;35.90;;;;;;6176638;28;83666;-47
2020/12/13 15:40:06;;;;;;;17.08;10.18;;;23.10;35.90;;;;;;6177678;28;84328;-45
2020/12/13 15:43:06;;;;;;;17.98;9.30;;;23.00;35.80;;;;;;6175960;28;86968;-47
2020/12/13 15:46:07;;;;;;;15.88;9.45;;;22.90;35.50;;;;;;6176307;28;84632;-49